Time;durP1;ratioP1;P1;durP2;ratioP2;P2;SDS_P1;SDS_P2;PMS_P1;PMS_P2;Temp;Humidity;BMP_temperature;BMP_pressure;BME280_temperature;BME280_humidity;BME280_pressure;Samples;Min_cycle;Max_cycle;Signal;HPM_P1;HPM_P2
2022/03/30 00:01:55;;;;;;;11.30;5.45;;;;;;;10.49;88.66;98119.53;8250055;28;21076;-70
2022/03/30 00:05:57;;;;;;;9.52;5.75;;;;;;;10.52;88.29;98125.50;8252811;28;20057;-70
2022/03/30 00:09:59;;;;;;;9.53;6.37;;;;;;;10.52;88.34;98119.44;8254887;28;20124;-70
2022/03/30 00:14:01;;;;;;;7.15;5.93;;;;;;;10.47;88.76;98129.09;8250986;28;20487;-71
2022/03/30 00:18:03;;;;;;;11.60;6.05;;;;;;;10.37;89.50;98127.59;8244963;28;20054;-70
2022/03/30 00:22:04;;;;;;;10.13;6.30;;;;;;;10.33;89.76;98118.19;8254524;28;20057;-70
2022/03/30 00:26:06;;;;;;;12.20;6.18;;;;;;;10.38;90.19;98105.97;8250279;28;20458;-70
2022/03/30 00:30:08;;;;;;;9.98;6.00;;;;;;;10.39;89.92;98105.91;8243284;28;20042;-70
2022/03/30 00:34:09;;;;;;;10.38;6.18;;;;;;;10.36;90.14;98102.56;8254105;28;20046;-71
2022/03/30 00:38:11;;;;;;;10.43;6.03;;;;;;;10.35;90.30;98106.03;8252589;28;20053;-70
2022/03/30 00:42:18;;;;;;;8.93;6.50;;;;;;;10.36;90.05;98099.94;8249506;28;20107;-70
2022/03/30 00:46:19;;;;;;;10.45;6.13;;;;;;;10.26;89.88;98084.63;8246395;28;20108;-71
2022/03/30 00:50:22;;;;;;;10.55;6.38;;;;;;;10.23;90.36;98094.19;8252833;28;20329;-70
2022/03/30 00:54:24;;;;;;;10.60;6.57;;;;;;;10.20;90.98;98086.47;8250779;28;20475;-71
2022/03/30 00:58:26;;;;;;;14.55;7.63;;;;;;;10.20;90.45;98081.28;8250459;28;20751;-71
2022/03/30 01:02:29;;;;;;;12.82;6.80;;;;;;;10.24;90.67;98078.63;8250737;28;20142;-70
2022/03/30 01:06:31;;;;;;;11.55;6.97;;;;;;;10.21;90.95;98070.91;8252957;28;20121;-71
2022/03/30 01:10:32;;;;;;;14.67;6.67;;;;;;;10.21;91.15;98070.03;8250475;28;20062;-71
2022/03/30 01:14:35;;;;;;;10.98;6.85;;;;;;;10.24;91.02;98059.63;8253920;28;20283;-71
2022/03/30 01:18:40;;;;;;;;;;;;;;;10.20;90.93;98045.81;8252079;28;20469;-71
2022/03/30 01:22:42;;;;;;;12.95;6.72;;;;;;;10.20;90.91;98047.56;8265591;28;19929;-70
2022/03/30 01:26:43;;;;;;;9.68;6.63;;;;;;;10.21;91.52;98041.50;8250954;28;20054;-70
2022/03/30 01:35:07;;;;;;;7.95;6.03;;;;;;;10.23;90.61;98029.34;8251120;28;20050;-71
2022/03/30 01:39:08;;;;;;;11.02;7.00;;;;;;;10.15;90.56;98026.06;8248765;28;20046;-70
2022/03/30 01:43:09;;;;;;;11.65;6.50;;;;;;;10.07;91.49;98018.50;8244703;28;20439;-70
2022/03/30 01:47:12;;;;;;;9.85;7.25;;;;;;;10.12;91.98;98014.03;8238466;28;20055;-71
2022/03/30 01:51:14;;;;;;;15.70;7.55;;;;;;;10.18;91.69;98007.84;8250063;28;20077;-71
2022/03/30 01:55:17;;;;;;;11.20;6.93;;;;;;;10.11;92.42;97999.38;8246215;28;20066;-71
2022/03/30 01:59:20;;;;;;;11.02;7.00;;;;;;;10.11;91.88;98007.16;8250062;28;20054;-71
2022/03/30 02:03:21;;;;;;;10.38;6.30;;;;;;;10.12;91.44;97992.44;8249006;28;20066;-71
2022/03/30 02:07:23;;;;;;;18.05;7.35;;;;;;;10.14;91.21;97988.06;8264425;28;20107;-71
2022/03/30 02:11:26;;;;;;;10.63;7.07;;;;;;;10.15;91.39;97982.84;8260318;28;20558;-71
2022/03/30 02:15:29;;;;;;;;;;;;;;;10.18;91.55;97981.91;8257355;28;20049;-71
2022/03/30 02:19:30;;;;;;;;;;;;;;;10.14;91.26;97981.13;8264455;28;20040;-71
2022/03/30 02:23:32;;;;;;;7.85;6.25;;;;;;;10.09;91.08;97976.97;8259028;28;19926;-71
2022/03/30 02:27:34;;;;;;;10.10;6.47;;;;;;;10.05;91.10;97970.97;8262514;28;20055;-71
2022/03/30 02:31:35;;;;;;;11.20;7.57;;;;;;;10.05;91.75;97970.13;8257971;28;20069;-71
2022/03/30 02:35:37;;;;;;;10.45;7.03;;;;;;;10.05;91.57;97968.38;8263425;28;20306;-70
2022/03/30 02:39:39;;;;;;;11.18;7.32;;;;;;;10.04;91.17;97965.84;8261715;28;20057;-71
2022/03/30 02:43:40;;;;;;;10.43;6.93;;;;;;;10.03;91.60;97958.94;8264984;28;20141;-71
2022/03/30 02:52:04;;;;;;;11.50;8.15;;;;;;;10.03;91.81;97959.78;8262646;28;20085;-71
2022/03/30 02:56:05;;;;;;;10.98;7.15;;;;;;;10.02;91.65;97950.31;8263053;28;20581;-71
2022/03/30 03:00:07;;;;;;;10.45;7.15;;;;;;;10.03;91.51;97951.16;8252099;28;20055;-71
2022/03/30 03:04:09;;;;;;;12.55;8.18;;;;;;;9.98;91.73;97951.28;8253587;28;20145;-71
2022/03/30 03:08:12;;;;;;;9.97;7.13;;;;;;;9.91;91.78;97944.56;8255439;28;20045;-71
2022/03/30 03:12:13;;;;;;;;;;;;;;;9.90;91.76;97937.69;8254293;28;20140;-71
2022/03/30 03:16:14;;;;;;;11.38;7.68;;;;;;;9.89;92.25;97931.66;8250112;28;19931;-71
2022/03/30 03:20:17;;;;;;;11.23;8.13;;;;;;;9.94;93.01;97928.94;8252903;28;20575;-71
2022/03/30 03:24:18;;;;;;;11.32;8.25;;;;;;;9.95;92.81;97928.03;8250791;28;20554;-71
2022/03/30 03:28:19;;;;;;;8.90;7.72;;;;;;;9.97;92.65;97916.72;8254346;28;20176;-71
2022/03/30 03:32:21;;;;;;;11.60;7.77;;;;;;;9.98;92.14;97915.00;8252019;28;20340;-71
2022/03/30 03:36:23;;;;;;;13.63;7.50;;;;;;;9.99;92.11;97908.91;8247314;28;20086;-70
2022/03/30 03:40:26;;;;;;;9.98;7.40;;;;;;;9.96;92.29;97911.59;8256244;28;20051;-70
2022/03/30 03:44:28;;;;;;;11.90;7.63;;;;;;;9.98;92.78;97902.88;8251297;28;20055;-71
2022/03/30 03:48:30;;;;;;;12.32;8.13;;;;;;;9.98;93.16;97900.28;8253246;28;20137;-70
2022/03/30 03:52:32;;;;;;;11.43;8.38;;;;;;;9.99;93.22;97903.72;8249270;28;20142;-71
2022/03/30 03:56:33;;;;;;;14.60;8.93;;;;;;;10.00;92.83;97895.06;8256067;28;20050;-70
2022/03/30 04:00:35;;;;;;;12.52;9.15;;;;;;;10.02;92.38;97897.59;8240961;28;20165;-70
2022/03/30 04:04:39;;;;;;;11.73;8.85;;;;;;;10.03;92.47;97886.34;8254484;28;20344;-71
2022/03/30 04:08:41;;;;;;;11.80;8.70;;;;;;;10.04;92.37;97891.47;8249478;28;20050;-71
2022/03/30 04:12:43;;;;;;;13.43;9.23;;;;;;;10.03;91.97;97883.75;8250715;28;20061;-70
2022/03/30 04:16:44;;;;;;;14.63;9.27;;;;;;;10.05;91.13;97884.56;8248440;28;20542;-71
2022/03/30 04:20:46;;;;;;;13.47;9.03;;;;;;;10.02;91.48;97890.66;8253892;28;20085;-70
2022/03/30 04:24:47;;;;;;;15.48;9.77;;;;;;;10.02;90.83;97885.47;8255569;28;20467;-70
2022/03/30 04:28:49;;;;;;;15.23;10.18;;;;;;;9.95;91.92;97884.81;8254646;28;20042;-70
2022/03/30 04:32:51;;;;;;;13.48;9.43;;;;;;;9.96;92.22;97878.72;8249593;28;20093;-70
2022/03/30 04:36:52;;;;;;;15.38;9.77;;;;;;;9.96;92.52;97881.31;8254944;28;20069;-70
2022/03/30 04:40:54;;;;;;;12.73;8.67;;;;;;;9.99;91.75;97876.06;8254692;28;20049;-70
2022/03/30 04:44:55;;;;;;;13.38;8.98;;;;;;;10.01;91.42;97881.19;8253385;28;20176;-70
2022/03/30 04:48:57;;;;;;;14.55;9.55;;;;;;;10.01;91.13;97881.19;8250990;28;20052;-71
2022/03/30 04:52:58;;;;;;;12.45;9.05;;;;;;;10.00;90.77;97885.53;8255776;28;20061;-71
2022/03/30 04:56:59;;;;;;;18.27;8.85;;;;;;;9.99;91.17;97885.56;8252660;28;20757;-71
2022/03/30 05:01:01;;;;;;;11.40;9.00;;;;;;;9.99;90.97;97872.59;8250198;28;20068;-71
2022/03/30 05:05:04;;;;;;;15.67;9.07;;;;;;;9.99;91.56;97882.97;8254311;28;20047;-71
2022/03/30 05:09:05;;;;;;;14.65;9.82;;;;;;;9.94;92.17;97883.09;8253209;28;20053;-71
2022/03/30 05:13:07;;;;;;;14.25;9.38;;;;;;;9.93;92.07;97868.44;8255208;28;20164;-71
2022/03/30 05:17:09;;;;;;;12.05;9.00;;;;;;;9.90;92.18;97867.69;8244896;28;20379;-71
2022/03/30 05:21:10;;;;;;;13.65;9.60;;;;;;;9.90;92.11;97878.91;8246339;28;20159;-71
2022/03/30 05:25:13;;;;;;;19.63;11.02;;;;;;;9.89;92.02;97865.97;8248232;28;20153;-71
2022/03/30 05:29:14;;;;;;;13.00;9.55;;;;;;;9.89;92.27;97878.94;8246790;28;20081;-71
2022/03/30 05:33:16;;;;;;;11.73;9.38;;;;;;;9.88;91.69;97872.06;8239080;28;20145;-71
2022/03/30 05:37:18;;;;;;;13.00;9.50;;;;;;;9.90;91.73;97875.47;8246334;28;20057;-70
2022/03/30 05:41:20;;;;;;;15.23;10.32;;;;;;;9.91;91.64;97871.97;8242559;28;20145;-70
2022/03/30 05:45:22;;;;;;;20.33;10.90;;;;;;;9.90;91.28;97867.69;8251897;28;20058;-71
2022/03/30 05:49:24;;;;;;;15.00;10.60;;;;;;;9.91;91.08;97866.78;8253190;28;20095;-71
2022/03/30 05:53:26;;;;;;;17.35;11.20;;;;;;;9.84;91.02;97871.25;8254171;28;20046;-72
2022/03/30 05:57:27;;;;;;;18.20;11.25;;;;;;;9.83;90.39;97873.91;8252364;28;20449;-72
2022/03/30 06:01:28;;;;;;;18.52;12.13;;;;;;;9.83;90.26;97868.72;8250041;28;20065;-71
2022/03/30 06:05:30;;;;;;;19.65;13.10;;;;;;;9.83;90.14;97874.75;8254944;28;20120;-71
2022/03/30 06:09:34;;;;;;;22.40;13.27;;;;;;;9.84;89.57;97879.03;8253381;28;20046;-71
2022/03/30 06:13:41;;;;;;;16.65;12.13;;;;;;;9.86;89.74;97882.44;8251964;28;20049;-71
2022/03/30 06:17:43;;;;;;;17.35;12.35;;;;;;;9.83;89.23;97882.53;8246628;28;20065;-71
2022/03/30 06:21:45;;;;;;;20.60;12.75;;;;;;;9.84;88.83;97886.81;8255144;28;20072;-71
2022/03/30 06:25:47;;;;;;;15.68;11.57;;;;;;;9.84;88.83;97880.78;8251286;28;20655;-71
2022/03/30 06:29:49;;;;;;;17.83;12.40;;;;;;;9.85;88.86;97872.13;8251834;28;20060;-71
2022/03/30 06:33:50;;;;;;;19.20;12.57;;;;;;;9.86;88.75;97884.19;8247089;28;20141;-71
2022/03/30 06:37:52;;;;;;;20.80;13.57;;;;;;;9.83;89.09;97876.50;8253873;28;20069;-71
2022/03/30 06:41:55;;;;;;;16.58;12.07;;;;;;;9.85;89.40;97882.47;8256615;28;20107;-71
2022/03/30 06:45:57;;;;;;;15.82;11.98;;;;;;;9.85;88.61;97883.34;8252085;28;20088;-71
2022/03/30 06:49:59;;;;;;;18.10;11.88;;;;;;;9.87;88.81;97880.69;8257816;28;20080;-71
2022/03/30 06:54:00;;;;;;;19.17;12.60;;;;;;;9.89;89.01;97884.97;8247589;28;20157;-71
2022/03/30 06:58:02;;;;;;;17.97;12.43;;;;;;;9.91;88.95;97895.31;8255049;28;20056;-71
2022/03/30 07:02:03;;;;;;;18.67;12.10;;;;;;;9.94;89.32;97892.63;8247071;28;20055;-71
2022/03/30 07:06:05;;;;;;;17.43;12.20;;;;;;;9.97;89.85;97896.00;8258276;28;20145;-71
2022/03/30 07:10:16;;;;;;;26.40;14.32;;;;;;;9.98;90.12;97883.88;8257403;28;20439;-71
2022/03/30 07:14:18;;;;;;;19.83;13.40;;;;;;;10.06;90.35;97894.91;8255946;28;20133;-71
2022/03/30 07:18:20;;;;;;;22.40;13.60;;;;;;;10.11;90.23;97887.84;8248006;28;20082;-72
2022/03/30 07:22:22;;;;;;;27.80;14.60;;;;;;;10.21;89.72;97886.72;8274208;28;20514;-72
2022/03/30 07:26:23;;;;;;;20.73;13.73;;;;;;;10.27;89.69;97878.78;8254438;28;20097;-71
2022/03/30 07:30:26;;;;;;;19.70;13.65;;;;;;;10.28;89.20;97888.28;8251857;28;20042;-72
2022/03/30 07:34:28;;;;;;;22.27;14.15;;;;;;;10.29;88.94;97884.78;8256856;28;20062;-72
2022/03/30 07:38:30;;;;;;;19.20;12.88;;;;;;;10.31;88.25;97883.91;8252221;28;20120;-72
2022/03/30 07:42:32;;;;;;;18.07;12.90;;;;;;;10.32;88.04;97886.44;8258147;28;20046;-72
2022/03/30 07:46:33;;;;;;;19.15;12.60;;;;;;;10.35;87.76;97885.50;8252654;28;20717;-71
2022/03/30 07:50:36;;;;;;;19.13;13.13;;;;;;;10.35;88.62;97881.16;8249179;28;20055;-72
2022/03/30 07:54:38;;;;;;;18.35;12.55;;;;;;;10.36;88.73;97882.00;8249525;28;20061;-71
2022/03/30 07:58:40;;;;;;;20.83;13.40;;;;;;;10.39;88.82;97877.59;8249665;28;20165;-71
2022/03/30 08:02:44;;;;;;;20.47;13.03;;;;;;;10.45;88.15;97889.56;8251871;28;20062;-71
2022/03/30 08:06:46;;;;;;;19.88;13.25;;;;;;;10.45;88.76;97895.59;8256501;28;20061;-71
2022/03/30 08:10:47;;;;;;;22.73;13.67;;;;;;;10.44;87.83;97893.06;8253013;28;20130;-71
2022/03/30 08:14:49;;;;;;;18.38;13.48;;;;;;;10.42;88.07;97898.28;8254797;28;20061;-71
2022/03/30 08:18:50;;;;;;;16.38;12.63;;;;;;;10.37;87.50;97894.94;8245437;28;20054;-71
2022/03/30 08:22:52;;;;;;;19.70;12.07;;;;;;;10.35;87.28;97899.31;8253857;28;20726;-72
2022/03/30 08:26:54;;;;;;;21.75;14.43;;;;;;;10.34;88.41;97902.81;8248765;28;20145;-72
2022/03/30 08:30:56;;;;;;;;;;;;;;;10.37;87.94;97907.91;8244467;28;20082;-72
2022/03/30 08:34:58;;;;;;;20.25;12.68;;;;;;;10.36;87.92;97901.03;8238598;28;20020;-70
2022/03/30 08:39:05;;;;;;;17.02;11.75;;;;;;;10.37;87.86;97904.47;8242315;28;20161;-71
2022/03/30 08:43:06;;;;;;;20.75;12.38;;;;;;;10.36;88.11;97903.63;8243074;28;20108;-72
2022/03/30 08:47:11;;;;;;;18.85;12.85;;;;;;;10.34;88.50;97902.81;8236113;28;20120;-72
2022/03/30 08:51:15;;;;;;;19.88;14.55;;;;;;;10.35;89.63;97898.47;8236844;28;20738;-72
2022/03/30 08:55:17;;;;;;;19.45;13.40;;;;;;;10.33;89.53;97902.84;8239772;28;20088;-72
2022/03/30 08:59:22;;;;;;;21.13;12.88;;;;;;;10.32;89.77;97909.78;8240476;28;20358;-73
2022/03/30 09:03:24;;;;;;;21.40;13.50;;;;;;;10.28;89.46;97909.03;8236455;28;20073;-73
2022/03/30 09:07:27;;;;;;;19.10;13.35;;;;;;;10.24;89.42;97920.38;8240934;28;20084;-73
2022/03/30 09:11:36;;;;;;;20.17;13.05;;;;;;;10.23;89.55;97923.00;8241280;28;20374;-72
2022/03/30 09:15:38;;;;;;;19.27;14.20;;;;;;;10.17;90.00;97918.81;8236822;28;20058;-73
2022/03/30 09:19:40;;;;;;;17.55;12.00;;;;;;;10.17;89.76;97925.72;8237838;28;20058;-73
2022/03/30 09:23:46;;;;;;;16.65;10.70;;;;;;;10.15;90.09;97925.78;8242615;28;20109;-73
2022/03/30 09:27:48;;;;;;;14.70;9.77;;;;;;;10.15;89.90;97930.09;8242195;28;20058;-71
2022/03/30 09:31:51;;;;;;;15.40;10.40;;;;;;;10.12;89.76;97927.59;8238530;28;20062;-73
2022/03/30 09:35:56;;;;;;;13.45;8.80;;;;;;;10.06;88.87;97927.78;8238602;28;20058;-74
2022/03/30 09:39:57;;;;;;;11.90;8.60;;;;;;;10.04;88.40;97926.94;8241450;28;20082;-71
2022/03/30 09:44:03;;;;;;;12.27;8.90;;;;;;;10.02;88.30;97926.13;8235600;28;20054;-72
2022/03/30 09:48:30;;;;;;;10.95;8.50;;;;;;;9.93;88.22;97920.28;8242723;28;20145;-72
2022/03/30 09:52:33;;;;;;;12.02;8.32;;;;;;;9.84;86.92;97924.84;8246897;28;20050;-71
2022/03/30 09:56:39;;;;;;;11.07;8.63;;;;;;;9.74;87.80;97924.25;8248375;28;20069;-72
2022/03/30 10:00:41;;;;;;;10.75;7.82;;;;;;;9.71;87.82;97920.88;8236636;28;20083;-73
2022/03/30 10:04:44;;;;;;;;;;;;;;;9.64;87.15;97923.59;8245380;28;20624;-73
2022/03/30 10:08:48;;;;;;;10.32;7.45;;;;;;;9.59;87.05;97919.44;8246850;28;19936;-74
2022/03/30 10:12:49;;;;;;;11.48;8.02;;;;;;;9.59;87.59;97920.28;8243873;28;20157;-72
2022/03/30 10:16:51;;;;;;;9.10;7.57;;;;;;;9.58;87.71;97920.31;8240032;28;20062;-71
2022/03/30 10:21:17;;;;;;;10.50;7.75;;;;;;;9.60;87.82;97921.97;8248801;28;20105;-71
2022/03/30 10:25:40;;;;;;;11.77;7.75;;;;;;;9.58;87.71;97916.00;8248527;28;20046;-70
2022/03/30 10:29:54;;;;;;;;;;;;;;;9.57;86.80;97916.88;8247197;28;20137;-71
2022/03/30 10:33:56;;;;;;;10.50;7.82;;;;;;;9.55;86.97;97920.41;8250160;28;19996;-72
2022/03/30 10:37:59;;;;;;;11.80;7.63;;;;;;;9.50;87.26;97920.47;8248956;28;20137;-73
2022/03/30 10:42:08;;;;;;;10.15;7.20;;;;;;;9.49;86.36;97920.53;8254253;28;20057;-73
2022/03/30 10:46:09;;;;;;;10.10;7.45;;;;;;;9.45;86.56;97917.16;8259894;28;20154;-72
2022/03/30 10:50:32;;;;;;;12.13;7.13;;;;;;;9.44;86.22;97917.19;8250824;28;20117;-71
2022/03/30 10:54:33;;;;;;;8.60;7.07;;;;;;;9.52;85.69;97926.50;8250452;28;20054;-71
2022/03/30 10:58:36;;;;;;;9.20;7.60;;;;;;;9.51;85.49;97910.97;8250809;28;20054;-72
2022/03/30 11:02:41;;;;;;;13.10;7.63;;;;;;;9.51;85.88;97901.47;8246466;28;20073;-72
2022/03/30 11:06:55;;;;;;;9.98;7.28;;;;;;;9.57;86.27;97909.09;8252689;28;20064;-72
2022/03/30 11:11:00;;;;;;;8.98;7.35;;;;;;;9.54;85.22;97906.59;8247827;28;20046;-71
2022/03/30 11:15:05;;;;;;;9.02;7.40;;;;;;;9.52;85.52;97903.19;8248037;28;20486;-71
2022/03/30 11:19:06;;;;;;;8.43;7.00;;;;;;;9.59;85.51;97901.28;8250252;28;20518;-71
2022/03/30 11:23:20;;;;;;;8.20;6.95;;;;;;;9.59;84.81;97899.56;8249778;28;20054;-73
2022/03/30 11:27:22;;;;;;;10.10;7.00;;;;;;;9.67;85.43;97888.97;8250049;28;20133;-71
2022/03/30 11:31:24;;;;;;;8.93;7.85;;;;;;;9.83;86.08;97890.28;8257151;28;20090;-72
2022/03/30 11:35:32;;;;;;;8.82;7.28;;;;;;;10.04;86.37;97885.44;8254864;28;20104;-72
2022/03/30 11:39:34;;;;;;;9.50;7.20;;;;;;;10.29;86.36;97881.34;8239565;28;20138;-72
2022/03/30 11:48:11;;;;;;;13.43;7.88;;;;;;;10.69;84.17;97883.66;8240381;28;20058;-71
2022/03/30 11:52:17;;;;;;;7.10;6.13;;;;;;;10.82;81.89;97873.78;8258195;28;20542;-70
2022/03/30 11:56:19;;;;;;;7.95;6.60;;;;;;;10.87;79.60;97870.13;8246790;28;20077;-71
2022/03/30 12:00:25;;;;;;;9.95;6.93;;;;;;;10.93;78.12;97863.91;8238127;28;20050;-71
2022/03/30 12:04:31;;;;;;;11.38;7.93;;;;;;;11.05;78.22;97857.47;8240907;28;20050;-71
2022/03/30 12:08:59;;;;;;;7.88;6.93;;;;;;;11.03;76.52;97867.06;8244606;28;20050;-73
2022/03/30 12:13:01;;;;;;;9.65;7.15;;;;;;;11.08;76.79;97865.19;8245499;28;20079;-73
2022/03/30 12:17:04;;;;;;;9.73;7.60;;;;;;;11.06;76.59;97867.81;8245928;28;20370;-73
2022/03/30 12:21:06;;;;;;;9.20;7.38;;;;;;;11.04;76.73;97866.19;8249683;28;20046;-72
2022/03/30 12:25:18;;;;;;;8.93;7.63;;;;;;;10.97;75.90;97860.34;8251509;28;20050;-74
2022/03/30 12:29:20;;;;;;;10.35;7.50;;;;;;;10.91;76.11;97855.31;8261258;28;20043;-73
2022/03/30 12:33:21;;;;;;;11.90;8.63;;;;;;;10.88;76.65;97843.28;8238846;28;20164;-73
2022/03/30 12:37:23;;;;;;;9.90;7.60;;;;;;;10.92;76.53;97843.16;8244243;28;20054;-72
2022/03/30 12:41:26;;;;;;;7.28;6.57;;;;;;;10.87;75.49;97841.56;8247756;28;20643;-72
2022/03/30 12:45:28;;;;;;;7.90;6.90;;;;;;;10.89;75.74;97831.13;8238855;28;20050;-72
2022/03/30 12:49:40;;;;;;;11.10;7.20;;;;;;;10.93;75.65;97835.31;8245568;28;20084;-73
2022/03/30 12:53:46;;;;;;;8.55;6.60;;;;;;;10.99;75.36;97829.13;8250250;28;20687;-73
2022/03/30 12:58:02;;;;;;;12.63;7.60;;;;;;;10.99;74.27;97823.91;8244160;28;20465;-73
2022/03/30 13:02:23;;;;;;;7.22;6.45;;;;;;;11.10;74.58;97821.81;8246187;28;20572;-72
2022/03/30 13:06:26;;;;;;;7.68;6.47;;;;;;;11.22;74.47;97815.38;8246106;28;20054;-72
2022/03/30 13:10:29;;;;;;;9.77;7.47;;;;;;;11.34;74.27;97805.47;8245190;28;20058;-72
2022/03/30 13:14:30;;;;;;;8.32;6.82;;;;;;;11.47;73.65;97803.28;8250741;28;20150;-73
2022/03/30 13:18:35;;;;;;;8.17;6.60;;;;;;;11.59;73.83;97799.44;8239993;28;20054;-72
2022/03/30 13:22:51;;;;;;;7.45;6.65;;;;;;;11.62;72.73;97794.13;8243243;28;20419;-73
2022/03/30 13:26:58;;;;;;;8.40;6.55;;;;;;;11.54;71.44;97789.19;8248581;28;20068;-73
2022/03/30 13:31:00;;;;;;;9.18;6.60;;;;;;;11.52;71.61;97793.59;8241119;28;20141;-72
2022/03/30 13:35:03;;;;;;;11.30;7.40;;;;;;;11.44;71.32;97780.84;8248253;28;20060;-73
2022/03/30 13:39:06;;;;;;;7.32;6.05;;;;;;;11.37;70.85;97779.38;8242253;28;20172;-73
2022/03/30 13:43:08;;;;;;;7.95;6.38;;;;;;;11.31;70.11;97782.19;8243667;28;20057;-73
2022/03/30 13:47:10;;;;;;;;;;;;;;;11.22;70.39;97785.06;8239314;28;20062;-73
2022/03/30 13:51:12;;;;;;;6.65;5.45;;;;;;;11.12;71.45;97786.25;8243116;28;20020;-72
2022/03/30 13:55:23;;;;;;;8.10;5.93;;;;;;;11.08;71.12;97780.31;8246769;28;20226;-72
2022/03/30 13:59:25;;;;;;;7.38;5.75;;;;;;;11.09;70.60;97770.78;8249409;28;20057;-72
2022/03/30 14:03:26;;;;;;;11.07;7.17;;;;;;;11.10;71.20;97772.47;8249014;28;20092;-72
2022/03/30 14:07:30;;;;;;;9.48;6.88;;;;;;;11.12;70.96;97773.25;8260140;28;20165;-73
2022/03/30 14:11:32;;;;;;;9.40;7.57;;;;;;;11.15;71.04;97771.44;8253257;28;20051;-72
2022/03/30 14:15:33;;;;;;;8.80;7.73;;;;;;;11.17;71.23;97764.44;8244596;28;20051;-72
2022/03/30 14:19:35;;;;;;;10.23;7.53;;;;;;;11.22;71.30;97761.69;8247642;28;20097;-73
2022/03/30 14:23:39;;;;;;;8.17;6.93;;;;;;;11.23;71.05;97750.38;8249595;28;20050;-72
2022/03/30 14:27:41;;;;;;;10.85;7.20;;;;;;;11.28;71.06;97743.28;8252060;28;20054;-72
2022/03/30 14:31:42;;;;;;;10.32;7.32;;;;;;;11.32;71.23;97742.31;8240024;28;21051;-72
2022/03/30 14:35:45;;;;;;;7.88;6.40;;;;;;;11.29;70.94;97746.72;8247462;28;20073;-72
2022/03/30 14:39:48;;;;;;;10.50;6.68;;;;;;;11.36;70.53;97741.28;8250548;28;20061;-72
2022/03/30 14:43:49;;;;;;;8.82;6.53;;;;;;;11.41;70.64;97728.97;8246971;28;20137;-73
2022/03/30 14:47:51;;;;;;;6.97;6.07;;;;;;;11.47;70.14;97723.56;8242700;28;20782;-72
2022/03/30 14:51:53;;;;;;;8.60;6.35;;;;;;;11.47;69.96;97720.97;8241858;28;20046;-73
2022/03/30 14:55:54;;;;;;;10.15;6.10;;;;;;;11.47;69.65;97720.13;8244759;28;20065;-73
2022/03/30 14:59:57;;;;;;;7.88;6.10;;;;;;;11.43;69.89;97716.78;8246792;28;20042;-72
2022/03/30 15:03:59;;;;;;;7.68;5.97;;;;;;;11.46;69.99;97710.63;8239634;28;20077;-72
2022/03/30 15:08:01;;;;;;;7.93;6.10;;;;;;;11.44;69.54;97715.03;8250998;28;20046;-73
2022/03/30 15:12:04;;;;;;;7.55;6.28;;;;;;;11.41;69.34;97715.13;8254365;28;20046;-73
2022/03/30 15:16:06;;;;;;;7.57;6.15;;;;;;;11.36;69.81;97699.72;8247920;28;20447;-73
2022/03/30 15:20:11;;;;;;;9.23;7.00;;;;;;;11.37;70.76;97693.63;8244992;28;20054;-73
2022/03/30 15:24:13;;;;;;;7.65;6.20;;;;;;;11.35;69.99;97694.56;8241014;28;20053;-73
2022/03/30 15:28:14;;;;;;;6.90;6.17;;;;;;;11.35;70.23;97698.03;8253716;28;20404;-72
2022/03/30 15:32:16;;;;;;;7.50;6.50;;;;;;;11.33;70.88;97689.44;8244540;28;20056;-73
2022/03/30 15:36:18;;;;;;;7.10;6.40;;;;;;;11.31;71.05;97693.84;8251657;28;20065;-72
2022/03/30 15:40:19;;;;;;;7.70;6.07;;;;;;;11.31;70.47;97685.16;8252671;28;20133;-73
2022/03/30 15:44:21;;;;;;;8.67;6.43;;;;;;;11.28;71.33;97678.31;8249189;28;20046;-73
2022/03/30 15:48:22;;;;;;;7.87;6.67;;;;;;;11.29;71.58;97676.56;8249004;28;20054;-73
2022/03/30 15:52:24;;;;;;;7.80;5.90;;;;;;;11.28;71.72;97669.69;8245339;28;20157;-73
2022/03/30 15:56:28;;;;;;;7.13;6.43;;;;;;;11.24;71.71;97671.53;8251566;28;20138;-72
2022/03/30 16:00:30;;;;;;;7.00;5.93;;;;;;;11.20;72.08;97677.75;8245661;28;20800;-72
2022/03/30 16:04:32;;;;;;;7.68;6.05;;;;;;;11.15;70.78;97677.06;8244046;28;20112;-73
2022/03/30 16:12:54;;;;;;;8.07;5.90;;;;;;;11.03;71.57;97672.28;8249451;28;20070;-73
2022/03/30 16:16:56;;;;;;;7.05;5.13;;;;;;;10.96;70.94;97665.63;8239973;28;20058;-72
2022/03/30 16:20:58;;;;;;;6.40;5.70;;;;;;;10.93;71.59;97665.69;8249548;28;20564;-73
2022/03/30 16:24:59;;;;;;;9.60;6.00;;;;;;;10.87;72.63;97678.00;8246920;28;20080;-72
2022/03/30 16:29:01;;;;;;;8.05;6.07;;;;;;;10.79;71.80;97671.38;8246837;28;20433;-72
2022/03/30 16:33:02;;;;;;;7.65;6.07;;;;;;;10.79;71.79;97663.56;8245688;28;20077;-71
2022/03/30 16:37:05;;;;;;;9.40;6.90;;;;;;;10.79;73.22;97673.97;8248251;28;20061;-72
2022/03/30 16:41:08;;;;;;;10.50;6.55;;;;;;;10.75;72.23;97675.78;8250711;28;20299;-72
2022/03/30 16:45:10;;;;;;;14.63;7.47;;;;;;;10.72;72.05;97670.69;8247659;28;20062;-73
2022/03/30 16:49:12;;;;;;;8.85;6.43;;;;;;;10.71;71.71;97675.94;8241104;28;20058;-73
2022/03/30 16:53:13;;;;;;;7.60;6.80;;;;;;;10.68;72.28;97681.25;8248196;28;20047;-73
2022/03/30 16:57:15;;;;;;;7.28;6.32;;;;;;;10.66;72.39;97681.28;8240604;28;20306;-72
2022/03/30 17:01:17;;;;;;;7.18;6.45;;;;;;;10.62;71.78;97681.44;8237140;28;20058;-72
2022/03/30 17:05:18;;;;;;;8.63;6.40;;;;;;;10.61;72.87;97678.00;8241838;28;20058;-73
2022/03/30 17:13:40;;;;;;;8.65;6.40;;;;;;;10.55;70.76;97676.44;8247609;28;20346;-73
2022/03/30 17:17:42;;;;;;;10.82;6.28;;;;;;;10.55;71.10;97684.22;8240538;28;20591;-72
2022/03/30 17:21:45;;;;;;;7.88;6.60;;;;;;;10.52;71.92;97684.31;8243157;28;20077;-72
2022/03/30 17:25:47;;;;;;;8.15;5.75;;;;;;;10.50;71.36;97683.53;8241697;28;20065;-72
2022/03/30 17:29:48;;;;;;;6.93;5.03;;;;;;;10.50;72.01;97682.66;8244640;28;20741;-70
2022/03/30 17:33:50;;;;;;;7.03;6.10;;;;;;;10.42;70.93;97685.53;8242548;28;20050;-70
2022/03/30 17:37:53;;;;;;;6.85;5.78;;;;;;;10.41;71.12;97681.22;8252501;28;20053;-70
2022/03/30 17:41:55;;;;;;;7.03;6.32;;;;;;;10.37;71.00;97678.75;8251561;28;20050;-70
2022/03/30 17:45:56;;;;;;;7.07;5.88;;;;;;;10.36;70.97;97684.84;8252399;28;20062;-70
2022/03/30 17:54:19;;;;;;;6.93;5.60;;;;;;;10.31;70.97;97684.16;8248266;28;20054;-70
2022/03/30 17:58:20;;;;;;;8.85;6.03;;;;;;;10.28;70.88;97683.34;8251365;28;20047;-70
2022/03/30 18:02:23;;;;;;;8.32;5.65;;;;;;;10.27;70.97;97686.00;8248122;28;20058;-70
2022/03/30 18:06:25;;;;;;;8.93;6.75;;;;;;;10.24;70.75;97681.75;8248346;28;20065;-70
2022/03/30 18:10:26;;;;;;;7.00;5.43;;;;;;;10.22;70.75;97688.69;8247487;28;20054;-70
2022/03/30 18:14:32;;;;;;;9.93;6.22;;;;;;;10.21;71.05;97688.75;8255858;28;20051;-70
2022/03/30 18:18:35;;;;;;;7.80;6.05;;;;;;;10.18;70.37;97686.22;8241488;28;20074;-70
2022/03/30 18:22:40;;;;;;;7.60;5.43;;;;;;;10.18;71.43;97686.22;8246991;28;20059;-70
2022/03/30 18:26:42;;;;;;;9.68;6.30;;;;;;;10.12;71.45;97682.06;8247806;28;20066;-70
2022/03/30 18:30:43;;;;;;;6.88;5.38;;;;;;;10.10;71.80;97689.06;8245518;28;20053;-70
2022/03/30 18:34:45;;;;;;;9.05;5.85;;;;;;;10.08;71.49;97683.06;8246084;28;20054;-70
2022/03/30 18:38:47;;;;;;;10.23;6.78;;;;;;;10.05;72.56;97688.31;8250543;28;20056;-70
2022/03/30 18:42:49;;;;;;;;;;;;;;;10.02;73.66;97691.00;8253716;28;20061;-70
2022/03/30 18:46:51;;;;;;;7.90;6.70;;;;;;;9.96;73.70;97696.38;8244843;28;19936;-70
2022/03/30 18:50:52;;;;;;;7.07;6.03;;;;;;;9.93;73.52;97696.47;8241726;28;20057;-71
2022/03/30 18:54:54;;;;;;;8.25;6.07;;;;;;;9.88;74.32;97688.00;8246358;28;20058;-71
2022/03/30 18:58:55;;;;;;;6.53;5.88;;;;;;;9.79;75.69;97694.28;8248721;28;20050;-71
2022/03/30 19:07:17;;;;;;;6.50;5.57;;;;;;;9.65;76.33;97684.28;8253841;28;20605;-70
2022/03/30 19:11:21;;;;;;;7.20;5.28;;;;;;;9.58;77.73;97687.97;8252488;28;20054;-71
2022/03/30 19:15:24;;;;;;;8.00;6.07;;;;;;;9.41;78.05;97687.56;8248445;28;20109;-71
2022/03/30 19:19:26;;;;;;;7.90;6.80;;;;;;;9.34;78.68;97686.91;8252494;28;20064;-71
2022/03/30 19:23:28;;;;;;;8.25;6.10;;;;;;;9.30;78.32;97681.81;8253637;28;20586;-71
2022/03/30 19:27:31;;;;;;;8.05;6.10;;;;;;;9.23;79.06;97690.66;8254368;28;20142;-71
2022/03/30 19:31:32;;;;;;;7.97;5.10;;;;;;;9.18;80.64;97692.53;8246396;28;20050;-71